Time;durP1;ratioP1;P1;durP2;ratioP2;P2;SDS_P1;SDS_P2;PMS_P1;PMS_P2;Temp;Humidity;BMP_temperature;BMP_pressure;BME280_temperature;BME280_humidity;BME280_pressure;Samples;Min_cycle;Max_cycle;Signal;HPM_P1;HPM_P2
2020/12/01 00:02:06;;;;;;;68.97;30.30;;;;;;;0.82;91.66;100819.34;4992094;28;20095;-74
2020/12/01 00:04:31;;;;;;;67.23;28.30;;;;;;;0.83;91.80;100816.59;4993321;28;20042;-74
2020/12/01 00:06:56;;;;;;;69.90;28.20;;;;;;;0.90;91.53;100822.31;5008147;28;20049;-74
2020/12/01 00:09:21;;;;;;;64.53;29.20;;;;;;;0.90;91.52;100816.22;4992919;28;20034;-74
2020/12/01 00:11:47;;;;;;;73.83;29.20;;;;;;;0.91;91.67;100808.22;4992919;28;20038;-74
2020/12/01 00:14:12;;;;;;;75.07;29.37;;;;;;;0.91;91.65;100813.47;4992942;28;20042;-74
2020/12/01 00:16:38;;;;;;;70.13;27.30;;;;;;;0.90;91.86;100811.78;4992673;28;20041;-74
2020/12/01 00:19:03;;;;;;;76.33;29.20;;;;;;;0.96;91.71;100823.69;5008058;28;20068;-74
2020/12/01 00:21:29;;;;;;;73.05;29.80;;;;;;;0.94;91.85;100802.78;4992630;28;20030;-74
2020/12/01 00:23:54;;;;;;;69.20;29.30;;;;;;;0.93;91.91;100800.22;4991756;28;20388;-74
2020/12/01 00:26:20;;;;;;;70.13;27.60;;;;;;;0.98;91.89;100813.91;4992389;28;20038;-74
2020/12/01 00:28:47;;;;;;;65.10;26.45;;;;;;;1.00;91.66;100802.34;4992903;28;20042;-74
2020/12/01 00:31:14;;;;;;;69.35;28.30;;;;;;;0.99;91.89;100805.09;4991419;28;20054;-74
2020/12/01 00:33:39;;;;;;;61.60;25.75;;;;;;;1.01;91.76;100805.84;4991509;28;20041;-74
2020/12/01 00:36:05;;;;;;;66.53;27.87;;;;;;;1.00;91.71;100806.78;4992200;28;20046;-74
2020/12/01 00:38:31;;;;;;;66.35;30.10;;;;;;;1.07;91.83;100812.50;4991344;28;20046;-74
2020/12/01 00:40:56;;;;;;;59.17;24.87;;;;;;;1.09;91.91;100806.19;4992323;28;20058;-74
2020/12/01 00:43:22;;;;;;;76.30;27.77;;;;;;;1.13;91.76;100812.94;4991352;28;20062;-75
2020/12/01 00:45:47;;;;;;;65.55;27.80;;;;;;;1.12;91.73;100805.97;4990997;28;20066;-74
2020/12/01 00:48:14;;;;;;;71.80;29.20;;;;;;;1.12;91.67;100803.34;5007882;28;20375;-74
2020/12/01 00:50:41;;;;;;;65.40;26.80;;;;;;;1.08;91.85;100804.50;4991172;28;20034;-74
2020/12/01 00:53:06;;;;;;;68.00;28.23;;;;;;;1.14;91.92;100800.63;4991247;28;20030;-74
2020/12/01 00:55:32;;;;;;;65.50;24.90;;;;;;;1.15;91.92;100797.06;4992171;28;20049;-74
2020/12/01 00:57:59;;;;;;;68.88;28.50;;;;;;;1.16;92.01;100799.56;4991125;28;20427;-74
2020/12/01 01:00:28;;;;;;;67.40;27.90;;;;;;;1.18;91.65;100789.81;4991134;28;20045;-74
2020/12/01 01:03:16;;;;;;;57.80;25.67;;;;;;;1.18;91.85;100795.06;4991978;28;20027;-74
2020/12/01 01:05:41;;;;;;;59.58;27.88;;;;;;;1.22;91.78;100791.28;4991575;28;20056;-74
2020/12/01 01:08:07;;;;;;;70.37;27.83;;;;;;;1.18;91.90;100792.44;4991906;28;20042;-74
2020/12/01 01:10:33;;;;;;;63.88;26.23;;;;;;;1.22;92.02;100791.28;4990690;28;20026;-74
2020/12/01 01:13:01;;;;;;;65.97;28.75;;;;;;;1.24;92.02;100793.81;4991283;28;20121;-74
2020/12/01 01:15:29;;;;;;;67.43;26.17;;;;;;;1.23;91.98;100792.97;5006867;28;20100;-74
2020/12/01 01:17:56;;;;;;;64.22;27.30;;;;;;;1.22;92.04;100790.47;4991637;28;20044;-74
2020/12/01 01:20:21;;;;;;;64.18;26.80;;;;;;;1.25;92.18;100782.34;4990802;28;20030;-74
2020/12/01 01:22:47;;;;;;;60.38;25.58;;;;;;;1.22;92.31;100783.41;4990666;28;20412;-74
2020/12/01 01:25:13;;;;;;;64.07;25.10;;;;;;;1.28;92.22;100787.41;4990674;28;20053;-74
2020/12/01 01:27:38;;;;;;;65.70;26.75;;;;;;;1.26;92.08;100784.03;4991349;28;20165;-74
2020/12/01 01:30:04;;;;;;;75.57;27.63;;;;;;;1.26;92.29;100784.91;4991435;28;20512;-74
2020/12/01 01:32:30;;;;;;;61.58;25.15;;;;;;;1.29;92.35;100793.50;4990580;28;20124;-74
2020/12/01 01:34:55;;;;;;;67.80;27.40;;;;;;;1.30;92.25;100788.16;4991589;28;20137;-74
2020/12/01 01:37:20;;;;;;;71.00;26.60;;;;;;;1.32;92.34;100788.06;4991297;28;20042;-74
2020/12/01 01:39:46;;;;;;;61.47;24.57;;;;;;;1.33;92.45;100787.94;4991463;28;20122;-74
2020/12/01 01:42:11;;;;;;;64.43;25.40;;;;;;;1.36;92.42;100792.16;4991611;28;20034;-74
2020/12/01 01:44:37;;;;;;;68.53;26.37;;;;;;;1.40;92.30;100785.75;4990369;28;20046;-74
2020/12/01 01:47:14;;;;;;;65.70;26.55;;;;;;;1.39;92.27;100781.44;4991096;28;20112;-74
2020/12/01 01:49:41;;;;;;;70.00;25.88;;;;;;;1.38;92.37;100782.38;4990453;28;20038;-74
2020/12/01 01:52:17;;;;;;;67.03;27.63;;;;;;;1.41;92.49;100792.72;4990453;28;20034;-74
2020/12/01 01:54:47;;;;;;;64.63;24.67;;;;;;;1.44;92.42;100780.19;4990362;28;20465;-74
2020/12/01 01:57:13;;;;;;;60.92;23.10;;;;;;;1.45;92.36;100794.16;4990018;28;20522;-74
2020/12/01 01:59:40;;;;;;;58.63;25.42;;;;;;;1.48;92.33;100783.47;4974224;28;20031;-74
2020/12/01 02:02:05;;;;;;;69.30;27.88;;;;;;;1.48;92.28;100780.81;4991130;28;20117;-74
2020/12/01 02:04:31;;;;;;;65.97;24.97;;;;;;;1.51;92.33;100772.72;5006694;28;20121;-74
2020/12/01 02:07:02;;;;;;;69.55;25.63;;;;;;;1.53;92.28;100776.09;4990943;28;20038;-74
2020/12/01 02:09:39;;;;;;;66.97;25.90;;;;;;;1.56;91.97;100767.97;4990115;28;20076;-74
2020/12/01 02:12:06;;;;;;;64.30;27.00;;;;;;;1.54;91.92;100769.88;4990157;28;20084;-74
2020/12/01 02:14:36;;;;;;;65.80;26.63;;;;;;;1.51;92.13;100772.72;4990201;28;20448;-74
2020/12/01 02:17:13;;;;;;;63.70;25.20;;;;;;;1.49;92.07;100771.97;4990908;28;20375;-74
2020/12/01 02:19:38;;;;;;;68.28;27.85;;;;;;;1.47;92.41;100768.59;4990899;28;20065;-74
2020/12/01 02:22:05;;;;;;;70.80;29.17;;;;;;;1.47;92.44;100769.47;4989900;28;20038;-73
2020/12/01 02:24:31;;;;;;;64.28;26.45;;;;;;;1.53;92.14;100772.63;4991509;28;20038;-74
2020/12/01 02:27:00;;;;;;;63.10;24.98;;;;;;;1.56;92.26;100778.50;4993656;28;20038;-74
2020/12/01 02:29:34;;;;;;;66.05;25.25;;;;;;;1.58;92.22;100776.63;4994044;28;20034;-74
2020/12/01 02:32:00;;;;;;;57.22;24.23;;;;;;;1.60;92.28;100777.34;4994858;28;20074;-74
2020/12/01 02:34:33;;;;;;;70.25;25.98;;;;;;;1.57;92.10;100774.06;4994665;28;20464;-74
2020/12/01 02:36:59;;;;;;;64.28;25.42;;;;;;;1.52;92.40;100777.03;4993384;28;20066;-74
2020/12/01 02:39:28;;;;;;;72.15;26.85;;;;;;;1.53;92.50;100778.72;4994649;28;20034;-74
2020/12/01 02:41:54;;;;;;;61.08;26.80;;;;;;;1.58;92.17;100787.16;4994369;28;20038;-74
2020/12/01 02:44:19;;;;;;;;;;;;;;;1.59;92.28;100782.72;4994099;28;20121;-74
2020/12/01 02:46:45;;;;;;;;;;;;;;;1.58;92.28;100779.25;4993663;28;20020;-74
2020/12/01 02:49:10;;;;;;;;;;;;;;;1.61;92.38;100784.28;4993940;28;19996;-74
2020/12/01 02:51:35;;;;;;;;;;;;;;;1.61;92.37;100775.56;4994757;28;19925;-74
2020/12/01 02:54:01;;;;;;;;;;;;;;;1.61;92.34;100781.66;4993845;28;19947;-74
2020/12/01 02:56:26;;;;;;;;;;;;;;;1.64;92.45;100786.75;4994617;28;19924;-74
2020/12/01 02:58:52;;;;;;;;;;;;;;;1.69;92.27;100782.00;4994688;28;20265;-74
2020/12/01 03:01:17;;;;;;;;;;;;;;;1.68;92.28;100788.19;4994778;28;19921;-74
2020/12/01 03:03:42;;;;;;;;;;;;;;;1.68;92.31;100787.34;4993978;28;19922;-74
2020/12/01 03:06:08;;;;;;;;;;;;;;;1.63;92.44;100790.31;4993954;28;19932;-74
2020/12/01 03:08:34;;;;;;;;;;;;;;;1.64;92.38;100781.47;4995056;28;19948;-74
2020/12/01 03:10:59;;;;;;;;;;;;;;;1.71;92.44;100792.44;4994050;28;19984;-74
2020/12/01 03:13:24;;;;;;;;;;;;;;;1.75;92.37;100782.53;4994962;28;19914;-75
2020/12/01 03:15:49;;;;;;;;;;;;;;;1.71;92.26;100787.19;4993601;28;19914;-74
2020/12/01 03:18:15;;;;;;;;;;;;;;;1.67;92.45;100786.53;4994826;28;19981;-74
2020/12/01 03:20:40;;;;;;;;;;;;;;;1.75;92.49;100783.38;4993959;28;20366;-75
2020/12/01 03:23:05;;;;;;;;;;;;;;;1.69;92.42;100797.78;4994622;28;20085;-74
2020/12/01 03:25:30;;;;;;;;;;;;;;;1.81;92.46;100803.19;4993760;28;19918;-75
2020/12/01 03:27:56;;;;;;;;;;;;;;;1.77;92.39;100806.97;4994555;28;19976;-74
2020/12/01 03:30:21;;;;;;;;;;;;;;;1.69;92.72;100805.69;4994706;28;19924;-74
2020/12/01 03:32:46;;;;;;;;;;;;;;;1.69;92.50;100804.84;4994549;28;19955;-74
2020/12/01 03:35:11;;;;;;;;;;;;;;;1.73;92.76;100800.22;4994056;28;20350;-74
2020/12/01 03:37:36;;;;;;;;;;;;;;;1.71;92.50;100804.72;4994380;28;19929;-75
2020/12/01 03:40:02;;;;;;;;;;;;;;;1.71;92.69;100797.69;4994619;28;19921;-75
2020/12/01 03:42:28;;;;;;;;;;;;;;;1.77;92.67;100802.53;4994404;28;20007;-74
2020/12/01 03:44:53;;;;;;;;;;;;;;;1.73;92.66;100800.22;4994289;28;19932;-74
2020/12/01 03:47:18;;;;;;;;;;;;;;;1.74;92.90;100796.66;4993150;28;19913;-74
2020/12/01 03:49:43;;;;;;;;;;;;;;;1.75;92.75;100793.06;4994164;28;20012;-75
2020/12/01 03:52:09;;;;;;;;;;;;;;;1.78;92.69;100800.72;4994297;28;20307;-74
2020/12/01 03:54:34;;;;;;;;;;;;;;;1.81;92.77;100798.75;4993275;28;19914;-74
2020/12/01 03:56:59;;;;;;;;;;;;;;;1.79;92.80;100805.06;4992935;28;19925;-75
2020/12/01 03:59:24;;;;;;;;;;;;;;;1.79;92.71;100805.06;4994144;28;19964;-75
2020/12/01 04:01:50;;;;;;;;;;;;;;;1.85;92.79;100800.22;4993167;28;19972;-75
2020/12/01 04:04:16;;;;;;;;;;;;;;;1.78;92.85;100806.88;4993988;28;19944;-74
2020/12/01 04:06:41;;;;;;;;;;;;;;;1.78;92.65;100809.50;4992858;28;19987;-74
2020/12/01 04:09:06;;;;;;;;;;;;;;;1.81;92.71;100808.44;4993986;28;19924;-74
2020/12/01 04:11:32;;;;;;;;;;;;;;;1.80;92.80;100810.25;4993039;28;19929;-75
2020/12/01 04:13:57;;;;;;;;;;;;;;;1.84;92.63;100814.31;4992917;28;19918;-74
2020/12/01 04:16:22;;;;;;;;;;;;;;;1.89;92.78;100816.66;4992543;28;20355;-74
2020/12/01 04:18:47;;;;;;;;;;;;;;;1.92;92.68;100818.22;4992524;28;19918;-74
2020/12/01 04:21:12;;;;;;;;;;;;;;;1.87;92.66;100821.16;4992591;28;20000;-75
2020/12/01 04:23:38;;;;;;;;;;;;;;;1.83;92.43;100823.19;4992609;28;20016;-75
2020/12/01 04:26:03;;;;;;;;;;;;;;;1.86;92.50;100816.88;4992171;28;19961;-75
2020/12/01 04:28:28;;;;;;;;;;;;;;;1.83;92.49;100820.56;4992561;28;19956;-74
2020/12/01 04:30:53;;;;;;;;;;;;;;;1.83;92.66;100822.34;4992523;28;20263;-75
2020/12/01 04:33:19;;;;;;;;;;;;;;;1.78;92.79;100824.44;4992457;28;19914;-75
2020/12/01 04:35:44;;;;;;;;;;;;;;;1.80;92.59;100825.16;4992854;28;20390;-75
2020/12/01 04:38:09;;;;;;;;;;;;;;;1.77;92.68;100828.84;4993424;28;19936;-75
2020/12/01 04:40:36;;;;;;;;;;;;;;;1.78;92.63;100824.44;4992235;28;19914;-75
2020/12/01 04:43:11;;;;;;;;;;;;;;;1.79;92.77;100828.75;4992950;28;19913;-74
2020/12/01 04:45:37;;;;;;;;;;;;;;;1.78;92.67;100827.94;4993027;28;20236;-74
2020/12/01 04:48:28;;;;;;;;;;;;;;;1.84;92.77;100830.13;4992292;28;20325;-74
2020/12/01 04:50:57;;;;;;;;;;;;;;;1.87;92.50;100826.44;4993136;28;19917;-74
2020/12/01 04:53:35;;;;;;;;;;;;;;;1.82;92.71;100837.28;4993022;28;20352;-75
2020/12/01 04:56:18;;;;;;;;;;;;;;;1.81;92.63;100832.13;4992798;28;19996;-75
2020/12/01 04:58:58;;;;;;;;;;;;;;;1.80;92.64;100833.94;4993099;28;19913;-75
2020/12/01 05:01:42;;;;;;;;;;;;;;;1.80;92.74;100843.59;5008358;28;19918;-75
2020/12/01 05:04:17;;;;;;;;;;;;;;;1.84;92.66;100845.09;4991869;28;20411;-75
2020/12/01 05:07:05;;;;;;;;;;;;;;;1.74;92.54;100839.59;5007856;28;19921;-75
2020/12/01 05:09:41;;;;;;;;;;;;;;;1.75;92.69;100843.91;4991884;28;19913;-75
2020/12/01 05:12:25;;;;;;;;;;;;;;;1.81;92.79;100842.66;4992755;28;20343;-74
2020/12/01 05:14:56;;;;;;;;;;;;;;;1.82;92.71;100847.81;4992745;28;20332;-75
2020/12/01 05:17:35;;;;;;;;;;;;;;;1.84;92.67;100859.09;4992532;28;19918;-75
2020/12/01 05:20:01;;;;;;;;;;;;;;;1.86;92.64;100856.34;4991713;28;19952;-74
2020/12/01 05:22:26;;;;;;;;;;;;;;;1.84;92.53;100861.72;4992619;28;19956;-74
2020/12/01 05:24:53;;;;;;;;;;;;;;;1.87;92.50;100865.94;4991552;28;19929;-75
2020/12/01 05:27:18;;;;;;;;;;;;;;;1.78;92.79;100867.41;4992249;28;19917;-74
2020/12/01 05:29:43;;;;;;;;;;;;;;;1.75;92.81;100869.41;4992525;28;19932;-74
2020/12/01 05:32:09;;;;;;;;;;;;;;;1.77;92.75;100873.59;4991553;28;19960;-75
2020/12/01 05:34:34;;;;;;;;;;;;;;;1.81;92.83;100871.63;4992476;28;19913;-74
2020/12/01 05:37:03;;;;;;;;;;;;;;;1.74;92.77;100872.97;4991097;28;19914;-75
2020/12/01 05:39:32;;;;;;;;;;;;;;;1.77;92.82;100872.78;4991671;28;20020;-75
2020/12/01 05:42:04;;;;;;;;;;;;;;;1.78;93.05;100877.06;4991006;28;20000;-75
2020/12/01 05:44:31;;;;;;;;;;;;;;;1.79;92.93;100876.97;4991498;28;19925;-76
2020/12/01 05:47:02;;;;;;;;;;;;;;;1.78;92.70;100883.22;4991224;28;20282;-75
2020/12/01 05:49:42;;;;;;;;;;;;;;;1.87;92.86;100885.22;4992446;28;19928;-75
2020/12/01 05:52:14;;;;;;;;;;;;;;;1.83;92.65;100893.44;4991340;28;19917;-75
2020/12/01 05:54:41;;;;;;;;;;;;;;;1.82;92.66;100904.88;4991387;28;19976;-75
2020/12/01 05:57:17;;;;;;;;;;;;;;;1.84;92.93;100897.75;4991933;28;19913;-75
2020/12/01 06:00:03;;;;;;;;;;;;;;;1.82;92.43;100894.34;4995008;28;19956;-75
2020/12/01 06:02:55;;;;;;;;;;;;;;;1.76;92.64;100900.88;4996237;28;19913;-76
2020/12/01 06:05:23;;;;;;;;;;;;;;;1.81;92.69;100905.84;4995398;28;19998;-75
2020/12/01 06:07:49;;;;;;;;;;;;;;;1.82;92.69;100910.16;4995903;28;19927;-75
2020/12/01 06:10:28;;;;;;;;;;;;;;;1.79;92.71;100916.47;4996153;28;19968;-75
2020/12/01 06:13:06;;;;;;;;;;;;;;;1.93;92.61;100915.56;4995230;28;19918;-75
2020/12/01 06:15:33;;;;;;;;;;;;;;;1.91;92.45;100920.06;4994992;28;19914;-76
2020/12/01 06:18:01;;;;;;;;;;;;;;;1.85;92.48;100920.47;4994892;28;19980;-75
2020/12/01 06:20:26;;;;;;;;;;;;;;;1.82;92.45;100920.69;4996018;28;20451;-75
2020/12/01 06:23:10;;;;;;;;;;;;;;;1.78;92.56;100924.47;4995858;28;20000;-75
2020/12/01 06:25:36;;;;;;;;;;;;;;;1.82;92.41;100918.06;4995577;28;19924;-75
2020/12/01 06:28:19;;;;;;;;;;;;;;;1.90;92.64;100932.41;4994774;28;20283;-75
2020/12/01 06:31:00;;;;;;;;;;;;;;;1.80;92.61;100933.97;4995883;28;20228;-76
2020/12/01 06:33:44;;;;;;;;;;;;;;;1.79;92.59;100937.53;4994689;28;20331;-75
2020/12/01 06:36:28;;;;;;;;;;;;;;;1.87;92.57;100943.16;4994390;28;20331;-76
2020/12/01 06:39:04;;;;;;;;;;;;;;;1.85;92.60;100946.81;4994706;28;19918;-76
2020/12/01 06:41:30;;;;;;;;;;;;;;;1.80;92.72;100949.78;4995741;28;19913;-76
2020/12/01 06:43:57;;;;;;;;;;;;;;;1.80;92.72;100954.16;4995587;28;20349;-76
2020/12/01 06:46:37;;;;;;;;;;;;;;;1.79;92.55;100955.13;4995357;28;19928;-75
2020/12/01 06:49:03;;;;;;;;;;;;;;;1.78;92.75;100958.69;4994563;28;20186;-76
2020/12/01 06:51:29;;;;;;;;;;;;;;;1.78;92.69;100964.81;4995544;28;20236;-75
2020/12/01 06:54:04;;;;;;;;;;;;;;;1.82;92.58;100968.06;4994322;28;19913;-75
2020/12/01 06:56:29;;;;;;;;;;;;;;;1.89;92.55;100974.63;4995056;28;20362;-75
2020/12/01 06:59:04;;;;;;;;;;;;;;;1.86;92.57;100980.09;4995262;28;19913;-75
2020/12/01 07:01:30;;;;;;;;;;;;;;;1.97;92.68;100980.25;4995246;28;20015;-76
2020/12/01 07:04:07;;;;;;;;;;;;;;;2.20;92.28;100983.13;4994080;28;20240;-75
2020/12/01 07:06:32;;;;;;;;;;;;;;;1.94;92.25;100984.84;4994001;28;20002;-75
2020/12/01 07:09:09;;;;;;;;;;;;;;;2.13;93.18;100992.38;4994127;28;19913;-77
2020/12/01 07:11:39;;;;;;;;;;;;;;;1.96;92.41;100999.59;4994259;28;20071;-76
2020/12/01 07:14:15;;;;;;;;;;;;;;;1.95;92.49;101005.00;4994983;28;19933;-76
2020/12/01 07:16:44;;;;;;;;;;;;;;;1.95;92.42;101008.47;4994867;28;19913;-76
2020/12/01 07:19:15;;;;;;;;;;;;;;;2.04;92.54;101015.75;4995045;28;19956;-76
2020/12/01 07:21:45;;;;;;;;;;;;;;;2.04;92.26;101023.66;4993872;28;19914;-76
2020/12/01 07:24:22;;;;;;;;;;;;;;;1.93;92.35;101023.53;4994260;28;19919;-76
2020/12/01 07:26:57;;;;;;;;;;;;;;;1.83;92.49;101027.72;4994408;28;20383;-76
2020/12/01 07:29:25;;;;;;;;;;;;;;;1.84;92.51;101029.38;4994076;28;19980;-76
2020/12/01 07:31:51;;;;;;;;;;;;;;;1.82;92.79;101032.09;4994725;28;19914;-76
2020/12/01 07:34:30;;;;;;;;;;;;;;;1.91;92.66;101035.94;4994586;28;20252;-76
2020/12/01 07:37:12;;;;;;;;;;;;;;;1.87;92.83;101031.81;5009554;28;19952;-76
2020/12/01 07:39:48;;;;;;;;;;;;;;;1.82;92.85;101036.53;4994475;28;19990;-76
2020/12/01 07:42:18;;;;;;;;;;;;;;;1.84;92.90;101039.91;4993502;28;19964;-76
2020/12/01 07:44:44;;;;;;;;;;;;;;;1.87;92.99;101045.84;5009842;28;19921;-75
2020/12/01 07:47:09;;;;;;;;;;;;;;;1.91;92.76;101046.47;4993840;28;20315;-76
2020/12/01 07:49:34;;;;;;;;;;;;;;;1.91;92.74;101057.00;4993581;28;19924;-76
2020/12/01 07:52:05;;;;;;;;;;;;;;;1.87;92.86;101056.38;4994539;28;20343;-76
2020/12/01 07:54:32;;;;;;;;;;;;;;;1.91;92.96;101057.00;4994236;28;19980;-75
2020/12/01 07:56:57;;;;;;;;;;;;;;;1.98;93.00;101060.94;4993099;28;19976;-76
2020/12/01 07:59:23;;;;;;;;;;;;;;;1.90;92.94;101065.84;4992932;28;19925;-76
2020/12/01 08:01:48;;;;;;;;;;;;;;;1.89;92.84;101065.00;4992890;28;19918;-76
2020/12/01 08:04:15;;;;;;;;;;;;;;;1.90;92.99;101066.69;4994078;28;20008;-76
2020/12/01 08:06:40;;;;;;;;;;;;;;;1.86;93.13;101067.00;4992786;28;19953;-76
2020/12/01 08:09:09;;;;;;;;;;;;;;;1.92;93.06;101079.78;4994043;28;19976;-75
2020/12/01 08:11:35;;;;;;;;;;;;;;;2.03;92.88;101079.91;4993764;28;19913;-76
2020/12/01 08:14:00;;;;;;;;;;;;;;;2.13;92.87;101080.19;4993976;28;19910;-76
2020/12/01 08:16:29;;;;;;;;;;;;;;;2.03;92.59;101074.63;4993420;28;20004;-76
2020/12/01 08:18:54;;;;;;;;;;;;;;;1.96;92.79;101075.97;5008444;28;20315;-75
2020/12/01 08:21:21;;;;;;;;;;;;;;;2.08;92.72;101088.38;4992395;28;20008;-75
2020/12/01 08:23:48;;;;;;;;;;;;;;;2.16;92.76;101095.78;4990704;28;20367;-75
2020/12/01 08:26:23;;;;;;;;;;;;;;;2.22;92.78;101097.16;5008981;28;19921;-76
2020/12/01 08:29:02;;;;;;;;;;;;;;;1.97;92.38;101104.03;5010751;28;19925;-76
2020/12/01 08:31:50;;;;;;;;;;;;;;;2.03;92.49;101108.88;5010266;28;19983;-75
2020/12/01 08:34:29;;;;;;;;;;;;;;;2.15;92.34;101115.13;5000149;28;19913;-75
2020/12/01 08:37:03;;;;;;;;;;;;;;;2.10;92.56;101112.81;4992784;28;19913;-75
2020/12/01 08:39:35;;;;;;;;;;;;;;;2.04;92.60;101118.47;5010119;28;19917;-75
2020/12/01 08:42:14;;;;;;;;;;;;;;;2.10;92.48;101125.13;5010679;28;20405;-75
2020/12/01 08:44:43;;;;;;;;;;;;;;;2.04;92.52;101131.66;5009265;28;19928;-75
2020/12/01 08:47:09;;;;;;;;;;;;;;;2.10;92.42;101141.78;5010358;28;19971;-75
2020/12/01 08:49:42;;;;;;;;;;;;;;;2.13;92.31;101147.78;5009861;28;19921;-75
2020/12/01 08:52:27;;;;;;;;;;;;;;;2.17;92.36;101146.66;5009857;28;19917;-75
2020/12/01 08:54:57;;;;;;;;;;;;;;;2.03;92.45;101151.00;5010506;28;19917;-75
2020/12/01 08:57:27;;;;;;;;;;;;;;;2.18;92.52;101151.84;5008687;28;19917;-75
2020/12/01 09:00:13;;;;;;;;;;;;;;;2.23;92.35;101157.66;5008712;28;19965;-75
2020/12/01 09:02:43;;;;;;;;;;;;;;;2.13;92.25;101158.34;5009978;28;20258;-75
2020/12/01 09:05:20;;;;;;;;;;;;;;;2.09;92.51;101161.16;5010249;28;20000;-75
2020/12/01 09:07:45;;;;;;;;;;;;;;;2.23;92.43;101164.72;5009326;28;19913;-75
2020/12/01 09:10:23;;;;;;;;;;;;;;;2.22;92.29;101166.47;5010798;28;19967;-75
2020/12/01 09:12:59;;;;;;;;;;;;;;;2.13;92.26;101177.63;4992461;28;19992;-75
2020/12/01 09:15:42;;;;;;;;;;;;;;;2.27;92.46;101179.38;5010070;28;19924;-75
2020/12/01 09:18:41;;;;;;;;;;;;;;;2.33;92.39;101185.09;5009731;28;19956;-75
2020/12/01 09:23:58;;;;;;;;;;;;;;;2.41;92.10;101189.88;5010304;28;19913;-75
2020/12/01 09:26:24;;;;;;;;;;;;;;;2.36;92.05;101194.59;5008757;28;20006;-74
2020/12/01 09:28:51;;;;;;;;;;;;;;;2.29;91.85;101203.84;4993282;28;19976;-74
2020/12/01 09:31:17;;;;;;;;;;;;;;;2.35;91.66;101208.72;5010341;28;19914;-74
2020/12/01 09:33:42;;;;;;;;;;;;;;;2.36;91.57;101202.50;5009548;28;19944;-74
2020/12/01 09:36:07;;;;;;;;;;;;;;;2.43;91.61;101201.16;5006403;28;20382;-74
2020/12/01 09:38:32;;;;;;;;;;;;;;;2.45;91.46;101209.81;4991115;28;19917;-74
2020/12/01 09:40:58;;;;;;;;;;;;;;;2.44;91.51;101220.47;4991237;28;20312;-74
2020/12/01 09:46:20;;;;;;;;;;;;;;;2.61;91.26;101229.91;4976476;28;19921;-74
2020/12/01 09:48:47;;;;;;;;;;;;;;;2.61;91.10;101222.84;4992338;28;19920;-74
2020/12/01 09:51:14;;;;;;;;;;;;;;;2.49;90.93;101234.19;4992364;28;19918;-74
2020/12/01 09:56:55;;;;;;;;;;;;;;;2.46;90.72;101237.88;4980012;28;19972;-74
2020/12/01 09:59:38;;;;;;;;;;;;;;;2.59;90.58;101237.06;4992278;28;19913;-74
2020/12/01 10:10:40;;;;;;;;;;;;;;;2.85;90.23;101241.50;4991171;28;19945;-74
2020/12/01 10:16:34;;;;;;;;;;;;;;;2.72;89.99;101248.53;4991787;28;19924;-73
2020/12/01 10:37:14;;;;;;;;;;;;;;;3.02;90.36;101276.47;4990634;28;19918;-74
2020/12/01 10:39:39;;;;;;;;;;;;;;;3.08;90.22;101265.53;4991065;28;19914;-74
2020/12/01 10:42:05;;;;;;;;;;;;;;;3.11;90.27;101275.88;4991594;28;19917;-74
2020/12/01 10:44:31;;;;;;;;;;;;;;;3.10;89.95;101276.81;4991790;28;19917;-73
2020/12/01 10:46:56;;;;;;;;;;;;;;;2.82;89.55;101276.00;4994990;28;19917;-74
2020/12/01 10:49:21;;;;;;;;;;;;;;;2.69;89.91;101280.34;4995461;28;20004;-74
2020/12/01 10:51:48;;;;;;;;;;;;;;;2.70;90.03;101272.34;4995340;28;20020;-73
2020/12/01 10:54:13;;;;;;;;;;;;;;;2.82;90.09;101270.72;5010805;28;19922;-74
2020/12/01 10:56:38;;;;;;;;;;;;;;;2.66;90.05;101273.47;4993766;28;20371;-74
2020/12/01 10:59:03;;;;;;;;;;;;;;;2.58;90.38;101273.16;4995285;28;19910;-74
2020/12/01 11:01:31;;;;;;;;;;;;;;;2.61;90.55;101275.56;4994588;28;19920;-74
2020/12/01 11:03:57;;;;;;;;;;;;;;;2.74;90.78;101278.28;5009792;28;19929;-74
2020/12/01 11:06:22;;;;;;;;;;;;;;;2.75;90.67;101282.59;4994770;28;19914;-74
2020/12/01 11:08:47;;;;;;;;;;;;;;;2.76;90.61;101279.00;4995142;28;19925;-74
2020/12/01 11:11:17;;;;;;;;;;;;;;;2.73;90.81;101276.59;4993980;28;20409;-74
2020/12/01 11:13:42;;;;;;;;;;;;;;;2.83;90.85;101282.94;4994968;28;19920;-74
2020/12/01 11:16:07;;;;;;;;;;;;;;;2.70;90.56;101293.44;4993792;28;19914;-74
2020/12/01 11:18:32;;;;;;;;;;;;;;;2.63;90.84;101291.31;4994910;28;20000;-74
2020/12/01 11:20:58;;;;;;;;;;;;;;;2.73;90.96;101295.03;4994012;28;19948;-74
2020/12/01 11:23:23;;;;;;;;;;;;;;;2.86;90.97;101293.31;4993809;28;20362;-74
2020/12/01 11:25:48;;;;;;;;;;;;;;;2.95;90.61;101297.16;4994375;28;20251;-74
2020/12/01 11:28:13;;;;;;;;;;;;;;;3.02;90.75;101302.84;4993571;28;19917;-74
2020/12/01 11:30:39;;;;;;;;;;;;;;;3.10;90.62;101306.69;4993286;28;19917;-73
2020/12/01 11:33:04;;;;;;;;;;;;;;;3.11;90.45;101308.41;4994227;28;20255;-74
2020/12/01 11:35:29;;;;;;;;;;;;;;;3.18;90.59;101319.38;4993099;28;20009;-74
2020/12/01 11:37:54;;;;;;;;;;;;;;;3.23;90.35;101311.16;4994007;28;19921;-74
2020/12/01 11:40:20;;;;;;;;;;;;;;;3.22;90.45;101326.16;4993136;28;19914;-74
2020/12/01 11:42:45;;;;;;;;;;;;;;;3.28;90.43;101332.84;4992827;28;19981;-74
2020/12/01 11:45:11;;;;;;;;;;;;;;;3.28;90.29;101340.75;4993967;28;19928;-74
2020/12/01 11:47:36;;;;;;;;;;;;;;;3.33;90.19;101338.66;4993641;28;19929;-74
2020/12/01 11:50:03;;;;;;;;;;;;;;;3.20;89.96;101354.41;4992973;28;19914;-73
2020/12/01 11:52:28;;;;;;;;;;;;;;;3.20;89.59;101349.16;4993805;28;19963;-74
2020/12/01 11:54:53;;;;;;;;;;;;;;;3.16;89.95;101345.00;4992797;28;19953;-74
2020/12/01 11:57:18;;;;;;;;;;;;;;;3.22;89.84;101355.16;4992012;28;19913;-74
2020/12/01 11:59:44;;;;;;;;;;;;;;;3.13;89.51;101364.53;4992798;28;19917;-73
2020/12/01 12:02:09;;;;;;;;;;;;;;;3.11;89.88;101362.94;4993596;28;19924;-74
2020/12/01 12:04:34;;;;;;;;;;;;;;;3.20;89.89;101367.63;4992699;28;19924;-74
2020/12/01 12:07:00;;;;;;;;;;;;;;;3.16;89.67;101368.75;4992342;28;19909;-74
2020/12/01 12:09:26;;;;;;;;;;;;;;;3.11;89.37;101377.00;4992590;28;19921;-74
2020/12/01 12:11:51;;;;;;;;;;;;;;;3.14;89.27;101381.22;4993320;28;20005;-73
2020/12/01 12:14:16;;;;;;;;;;;;;;;3.26;89.22;101390.97;4992586;28;19971;-74
2020/12/01 12:16:41;;;;;;;;;;;;;;;3.27;89.34;101387.38;4992154;28;20270;-74
2020/12/01 12:19:07;;;;;;;;;;;;;;;3.26;88.89;101385.69;4992372;28;19957;-74
2020/12/01 12:21:32;;;;;;;;;;;;;;;3.17;88.99;101391.56;4993305;28;20354;-74
2020/12/01 12:23:57;;;;;;;;;;;;;;;3.16;89.14;101400.41;4993190;28;19918;-74
2020/12/01 12:26:22;;;;;;;;;;;;;;;3.11;88.95;101392.81;4993190;28;19979;-73
2020/12/01 12:28:48;;;;;;;;;;;;;;;3.09;89.44;101397.34;4993096;28;19922;-74
2020/12/01 12:31:14;;;;;;;;;;;;;;;3.13;89.31;101400.63;4993323;28;20042;-73
2020/12/01 12:33:40;;;;;;;;;;;;;;;3.13;89.25;101405.91;4992115;28;19925;-74
2020/12/01 12:36:05;;;;;;;;;;;;;;;3.22;89.61;101409.75;4992753;28;19914;-74
2020/12/01 12:38:30;;;;;;;;;;;;;;;3.32;89.59;101416.13;4991990;28;19917;-74
2020/12/01 12:40:57;;;;;;;;;;;;;;;3.37;89.52;101408.75;4991647;28;19925;-74
2020/12/01 12:43:23;;;;;;;;;;;;;;;3.37;89.28;101414.88;4992888;28;19917;-74
2020/12/01 12:45:49;;;;;;;;;;;;;;;3.41;89.42;101414.69;4991554;28;20026;-74
2020/12/01 12:48:15;;;;;;;;;;;;;;;3.35;89.17;101422.06;4992818;28;19913;-74
2020/12/01 12:50:40;;;;;;;;;;;;;;;3.44;89.34;101425.03;4992227;28;19913;-74
2020/12/01 12:53:06;;;;;;;;;;;;;;;3.52;89.51;101438.59;4993046;28;19967;-74
2020/12/01 12:55:31;;;;;;;;;;;;;;;3.51;89.40;101432.47;4992047;28;19918;-74
2020/12/01 12:57:59;;;;;;;;;;;;;;;3.53;89.27;101450.84;4992122;28;19914;-74
2020/12/01 13:00:25;;;;;;;;;;;;;;;3.56;89.21;101450.66;4991653;28;19923;-74
2020/12/01 13:02:50;;;;;;;;;;;;;;;3.57;89.20;101452.34;4991442;28;19925;-74
2020/12/01 13:05:15;;;;;;;;;;;;;;;3.59;89.09;101450.44;4991539;28;19918;-74
2020/12/01 13:07:40;;;;;;;;;;;;;;;3.58;88.94;101452.25;4990434;28;20008;-74
2020/12/01 13:10:06;;;;;;;;;;;;;;;3.46;88.88;101454.81;4992286;28;20008;-74
2020/12/01 13:12:31;;;;;;;;;;;;;;;3.43;88.92;101466.44;4992490;28;20004;-74